createdAt,value
2022-10-03T00:00:34.092Z,9.80
2022-10-03T00:03:50.423Z,11.30
2022-10-03T00:07:15.396Z,12.30
2022-10-03T00:10:04.968Z,8.83
2022-10-03T00:13:00.950Z,8.53
2022-10-03T00:15:57.247Z,8.77
2022-10-03T00:19:08.054Z,10.40
2022-10-03T00:21:57.884Z,10.50
2022-10-03T00:25:02.618Z,10.07
2022-10-03T00:28:12.719Z,11.27
2022-10-03T00:31:10.577Z,12.53
2022-10-03T00:34:03.288Z,11.80
2022-10-03T00:37:07.657Z,10.87
2022-10-03T00:40:10.016Z,9.87
2022-10-03T00:43:33.727Z,9.80
2022-10-03T00:46:48.564Z,13.27
2022-10-03T00:50:07.992Z,12.03
2022-10-03T00:53:13.296Z,11.67
2022-10-03T00:56:21.761Z,11.63
2022-10-03T00:59:37.524Z,10.10
2022-10-03T01:02:43.307Z,9.90
2022-10-03T01:05:43.875Z,15.73
2022-10-03T01:09:03.480Z,12.63
2022-10-03T01:12:21.295Z,12.50
2022-10-03T01:15:08.260Z,12.73
2022-10-03T01:18:18.878Z,11.70
2022-10-03T01:21:14.327Z,14.87
2022-10-03T01:24:36.469Z,14.17
2022-10-03T01:27:31.279Z,14.17
2022-10-03T01:30:43.011Z,12.57
2022-10-03T01:33:47.625Z,13.40
2022-10-03T01:36:48.651Z,12.33
2022-10-03T01:39:41.701Z,12.80
2022-10-03T01:42:36.436Z,13.10
2022-10-03T01:45:48.381Z,12.77
2022-10-03T01:49:29.522Z,13.60
2022-10-03T01:52:37.076Z,14.63
2022-10-03T01:55:50.360Z,12.47
2022-10-03T01:59:11.971Z,14.77
2022-10-03T02:02:24.450Z,13.43
2022-10-03T02:05:35.108Z,12.43
2022-10-03T02:08:27.860Z,11.63
2022-10-03T02:11:29.363Z,13.77
2022-10-03T02:14:27.497Z,12.83
2022-10-03T02:17:40.813Z,11.97
2022-10-03T02:20:27.749Z,11.73
2022-10-03T02:23:17.726Z,13.00
2022-10-03T02:26:34.794Z,12.93
2022-10-03T02:29:45.256Z,12.40
2022-10-03T02:33:09.277Z,13.27
2022-10-03T02:36:14.543Z,14.60
2022-10-03T02:39:33.822Z,12.37
2022-10-03T02:42:48.269Z,14.43
2022-10-03T02:46:13.857Z,12.13
2022-10-03T02:49:16.745Z,13.87
2022-10-03T02:52:29.420Z,12.50
2022-10-03T02:55:48.525Z,13.13
2022-10-03T02:58:47.153Z,11.27
2022-10-03T03:01:40.539Z,15.13
2022-10-03T03:04:46.582Z,13.80
2022-10-03T03:07:45.607Z,12.97
2022-10-03T03:11:26.808Z,13.37
2022-10-03T03:14:16.253Z,14.97
2022-10-03T03:17:06.181Z,13.87
2022-10-03T03:20:07.184Z,14.83
2022-10-03T03:23:11.920Z,11.97
2022-10-03T03:26:11.120Z,13.73
2022-10-03T03:29:22.732Z,13.23
2022-10-03T03:32:24.789Z,14.43
2022-10-03T03:35:36.331Z,13.47
2022-10-03T03:38:42.019Z,12.67
2022-10-03T03:41:50.397Z,11.93
2022-10-03T03:45:17.444Z,12.83
2022-10-03T03:48:54.659Z,12.90
2022-10-03T03:52:21.720Z,12.50
2022-10-03T03:55:29.888Z,11.57
2022-10-03T03:58:26.432Z,12.47
2022-10-03T04:01:20.283Z,11.57
2022-10-03T04:04:07.061Z,11.50
2022-10-03T04:07:21.524Z,10.47
2022-10-03T04:10:33.317Z,11.27
2022-10-03T04:13:48.371Z,10.40
2022-10-03T04:16:58.292Z,9.80
2022-10-03T04:20:23.558Z,9.47
2022-10-03T04:23:41.012Z,10.77
2022-10-03T04:26:49.528Z,11.77
2022-10-03T04:30:16.312Z,11.13
2022-10-03T04:33:42.330Z,12.13
2022-10-03T04:36:43.463Z,11.50
2022-10-03T04:39:30.429Z,11.83
2022-10-03T04:42:30.517Z,10.07
2022-10-03T04:46:00.315Z,11.33
2022-10-03T04:49:34.948Z,12.13
2022-10-03T04:52:47.378Z,10.13
2022-10-03T04:55:48.455Z,11.27
2022-10-03T04:58:58.407Z,12.23
2022-10-03T05:02:14.630Z,11.80
2022-10-03T05:05:22.460Z,10.97
2022-10-03T05:08:32.767Z,10.60
2022-10-03T05:11:44.401Z,12.40
2022-10-03T05:14:41.764Z,11.00
2022-10-03T05:17:44.197Z,11.07
2022-10-03T05:20:49.257Z,10.97
2022-10-03T05:24:00.801Z,10.20
2022-10-03T05:26:59.927Z,12.17
2022-10-03T05:29:52.777Z,12.87
2022-10-03T05:32:48.552Z,11.70
2022-10-03T05:35:44.529Z,12.43
2022-10-03T05:38:43.848Z,13.17
2022-10-03T05:41:36.603Z,14.37
2022-10-03T05:44:38.116Z,12.63
2022-10-03T05:47:29.811Z,16.37
2022-10-03T05:50:01.480Z,12.10
2022-10-03T05:52:45.631Z,13.30
2022-10-03T05:55:59.852Z,12.30
2022-10-03T05:59:24.176Z,11.50
2022-10-03T06:02:38.871Z,11.87
2022-10-03T06:05:50.239Z,10.60
2022-10-03T06:09:30.771Z,11.33
2022-10-03T06:12:26.212Z,13.67
2022-10-03T06:15:34.586Z,13.53
2022-10-03T06:18:58.562Z,11.53
2022-10-03T06:21:57.573Z,12.60
2022-10-03T06:24:53.540Z,13.37
2022-10-03T06:27:43.315Z,15.43
2022-10-03T06:30:13.356Z,13.37
2022-10-03T06:33:06.208Z,14.97
2022-10-03T06:36:27.209Z,13.20
2022-10-03T06:39:32.505Z,13.77
2022-10-03T06:42:35.372Z,11.97
2022-10-03T06:45:31.171Z,12.70
2022-10-03T06:48:36.412Z,14.37
2022-10-03T06:51:51.310Z,12.97
2022-10-03T06:54:59.963Z,11.27
2022-10-03T06:57:52.840Z,12.23
2022-10-03T07:00:42.407Z,11.73
2022-10-03T07:03:50.352Z,12.77
2022-10-03T07:07:01.166Z,12.73
2022-10-03T07:10:25.640Z,12.50
2022-10-03T07:13:22.048Z,10.57
2022-10-03T07:16:30.100Z,16.07
2022-10-03T07:19:36.072Z,11.97
2022-10-03T07:22:35.499Z,12.93
2022-10-03T07:25:40.856Z,11.20
2022-10-03T07:28:40.014Z,11.67
2022-10-03T07:31:49.536Z,12.13
2022-10-03T07:35:24.702Z,11.03
2022-10-03T07:38:12.995Z,10.43
2022-10-03T07:41:14.745Z,10.70
2022-10-03T07:44:28.617Z,11.97
2022-10-03T07:47:52.976Z,13.57
2022-10-03T07:50:39.961Z,13.63
2022-10-03T07:53:39.364Z,10.90
2022-10-03T07:56:44.599Z,10.77
2022-10-03T07:59:50.217Z,11.80
2022-10-03T08:03:05.049Z,11.37
2022-10-03T08:06:34.777Z,11.43
2022-10-03T08:09:42.720Z,12.10
2022-10-03T08:13:02.942Z,12.40
2022-10-03T08:16:14.770Z,11.70
2022-10-03T08:19:39.149Z,12.23
2022-10-03T08:22:36.868Z,11.57
2022-10-03T08:25:39.031Z,12.67
2022-10-03T08:28:41.005Z,13.40
2022-10-03T08:31:34.167Z,12.37
2022-10-03T08:34:36.319Z,14.83
2022-10-03T08:38:14.448Z,12.83
2022-10-03T08:41:26.028Z,15.50
2022-10-03T08:44:51.141Z,14.90
2022-10-03T08:48:11.528Z,12.33
2022-10-03T08:51:59.573Z,13.53
2022-10-03T08:54:53.697Z,14.10
2022-10-03T08:57:38.806Z,18.67
2022-10-03T09:00:50.520Z,15.73
2022-10-03T09:04:18.849Z,11.43
2022-10-03T09:07:27.414Z,14.90
2022-10-03T09:10:51.812Z,12.53
2022-10-03T09:13:59.032Z,15.70
2022-10-03T09:16:48.863Z,12.97
2022-10-03T09:20:12.838Z,16.63
2022-10-03T09:23:47.557Z,15.43
2022-10-03T09:26:57.787Z,15.53
2022-10-03T09:29:53.751Z,12.83
2022-10-03T09:33:18.518Z,13.23
2022-10-03T09:36:27.285Z,13.83
2022-10-03T09:39:21.393Z,12.77
2022-10-03T09:42:45.798Z,13.87
2022-10-03T09:45:51.616Z,12.47
2022-10-03T09:49:04.788Z,12.37
2022-10-03T09:52:21.347Z,11.73
2022-10-03T09:55:25.796Z,11.60
2022-10-03T09:58:07.618Z,10.50
2022-10-03T10:01:13.342Z,13.27
2022-10-03T10:04:06.464Z,11.73
2022-10-03T10:07:13.408Z,10.77
2022-10-03T10:10:12.373Z,11.40
2022-10-03T10:13:49.799Z,9.53
2022-10-03T10:16:54.885Z,9.63
2022-10-03T10:19:46.861Z,10.03
2022-10-03T10:22:42.805Z,9.27
2022-10-03T10:25:37.640Z,11.43
2022-10-03T10:28:38.878Z,9.37
2022-10-03T10:31:24.356Z,12.07
2022-10-03T10:34:41.912Z,9.70
2022-10-03T10:38:06.344Z,11.43
2022-10-03T10:41:18.192Z,10.60
2022-10-03T10:44:23.727Z,9.60
2022-10-03T10:47:35.294Z,8.47
2022-10-03T10:50:28.105Z,8.90
2022-10-03T10:53:30.290Z,7.93
2022-10-03T10:56:54.711Z,8.33
2022-10-03T10:59:59.706Z,8.77
2022-10-03T11:03:01.927Z,8.37
2022-10-03T11:05:54.879Z,7.67
2022-10-03T11:08:53.921Z,9.27
2022-10-03T11:12:05.194Z,8.17
2022-10-03T11:15:29.860Z,8.40
2022-10-03T11:18:17.174Z,8.03
2022-10-03T11:21:19.136Z,8.57
2022-10-03T11:24:28.456Z,7.90
2022-10-03T11:27:44.448Z,9.30
2022-10-03T11:30:37.280Z,8.67
2022-10-03T11:33:56.812Z,8.87
2022-10-03T11:37:10.271Z,7.43
2022-10-03T11:40:15.416Z,7.40
2022-10-03T11:43:14.704Z,7.07
2022-10-03T11:46:07.382Z,7.07
2022-10-03T11:49:11.480Z,7.63
2022-10-03T11:52:05.679Z,7.60
2022-10-03T11:55:03.624Z,8.33
2022-10-03T11:57:55.177Z,7.23
2022-10-03T12:00:45.897Z,6.93
2022-10-03T12:03:41.225Z,6.90
2022-10-03T12:06:46.840Z,6.93
2022-10-03T12:09:48.245Z,7.37
2022-10-03T12:12:44.284Z,5.90
2022-10-03T12:15:54.201Z,6.33
2022-10-03T12:18:59.801Z,6.30
2022-10-03T12:22:02.878Z,5.80
2022-10-03T12:24:56.672Z,5.60
2022-10-03T12:28:08.638Z,6.07
2022-10-03T12:31:07.511Z,6.30
2022-10-03T12:34:05.064Z,6.63
2022-10-03T12:37:10.408Z,5.07
2022-10-03T12:40:20.813Z,5.07
2022-10-03T12:43:22.656Z,5.03
2022-10-03T12:46:17.774Z,6.50
2022-10-03T12:49:23.899Z,6.80
2022-10-03T12:52:28.513Z,4.90
2022-10-03T12:55:27.402Z,15.77
2022-10-03T12:58:33.241Z,8.47
2022-10-03T13:01:26.346Z,5.43
2022-10-03T13:04:23.320Z,4.23
2022-10-03T13:07:13.381Z,3.87
2022-10-03T13:10:22.024Z,4.17
2022-10-03T13:13:30.320Z,4.00
2022-10-03T13:16:17.399Z,3.80
2022-10-03T13:19:13.672Z,3.47
2022-10-03T13:22:20.560Z,3.60
2022-10-03T13:25:06.117Z,3.30
2022-10-03T13:27:43.517Z,3.70
2022-10-03T13:30:24.787Z,3.30
2022-10-03T13:33:00.616Z,3.97
2022-10-03T13:36:01.376Z,3.83
2022-10-03T13:38:51.062Z,4.47
2022-10-03T13:42:00.548Z,3.37
2022-10-03T13:45:03.544Z,4.17
2022-10-03T13:48:33.561Z,4.00
2022-10-03T13:51:35.802Z,4.00
2022-10-03T13:54:50.723Z,3.87
2022-10-03T13:57:44.803Z,4.00
2022-10-03T14:00:36.627Z,4.43
2022-10-03T14:03:35.111Z,4.17
2022-10-03T14:06:37.785Z,4.00
2022-10-03T14:09:30.613Z,3.80
2022-10-03T14:12:54.438Z,4.00
2022-10-03T14:16:24.979Z,3.97
2022-10-03T14:19:34.877Z,4.47
2022-10-03T14:22:43.160Z,4.30
2022-10-03T14:25:48.575Z,4.40
2022-10-03T14:28:52.676Z,4.50
2022-10-03T14:31:54.813Z,6.03
2022-10-03T14:35:33.417Z,4.63
2022-10-03T14:38:38.326Z,4.87
2022-10-03T14:41:35.253Z,4.33
2022-10-03T14:44:30.405Z,4.00
2022-10-03T14:47:31.294Z,5.13
2022-10-03T14:50:22.853Z,4.47
2022-10-03T14:53:18.883Z,4.20
2022-10-03T14:56:15.816Z,4.17
2022-10-03T14:59:13.071Z,3.73
2022-10-03T15:02:09.088Z,3.73
2022-10-03T15:04:59.643Z,4.00
2022-10-03T15:08:00.216Z,4.40
2022-10-03T15:10:48.916Z,5.13
2022-10-03T15:13:36.769Z,7.23
2022-10-03T15:16:24.746Z,5.27
2022-10-03T15:19:16.171Z,4.63
2022-10-03T15:22:05.004Z,6.40
2022-10-03T15:24:55.229Z,8.00
2022-10-03T15:27:47.098Z,8.97
2022-10-03T15:31:03.926Z,6.50
2022-10-03T15:33:56.271Z,7.63
2022-10-03T15:36:47.260Z,6.90
2022-10-03T15:39:48.453Z,8.00
2022-10-03T15:42:43.193Z,8.27
2022-10-03T15:45:42.571Z,8.10
2022-10-03T15:48:20.445Z,9.20
2022-10-03T15:51:18.580Z,10.57
2022-10-03T15:54:09.899Z,8.80
2022-10-03T15:57:03.467Z,8.33
2022-10-03T15:59:52.960Z,10.13
2022-10-03T16:02:47.865Z,8.13
2022-10-03T16:05:39.854Z,11.30
2022-10-03T16:08:40.017Z,10.20
2022-10-03T16:11:43.792Z,10.17
2022-10-03T16:15:04.763Z,11.40
2022-10-03T16:18:11.279Z,8.47
2022-10-03T16:21:02.629Z,10.00
2022-10-03T16:24:02.305Z,9.80
2022-10-03T16:27:06.447Z,10.90
2022-10-03T16:29:56.948Z,11.03
2022-10-03T16:32:48.649Z,9.87
2022-10-03T16:35:51.571Z,10.57
2022-10-03T16:38:45.453Z,12.83
2022-10-03T16:41:39.500Z,8.93
2022-10-03T16:44:43.514Z,9.90
2022-10-03T16:47:30.477Z,10.10
2022-10-03T16:50:17.988Z,10.20
2022-10-03T16:53:09.400Z,11.77
2022-10-03T16:56:05.256Z,10.80
2022-10-03T16:59:03.564Z,12.27
2022-10-03T17:02:40.024Z,9.77
2022-10-03T17:05:29.843Z,12.10
2022-10-03T17:08:40.844Z,10.63
2022-10-03T17:11:35.483Z,10.30
2022-10-03T17:14:27.044Z,10.60
2022-10-03T17:17:20.231Z,9.90
2022-10-03T17:20:18.165Z,12.53
2022-10-03T17:23:21.599Z,13.30
2022-10-03T17:26:11.492Z,12.20
2022-10-03T17:29:00.267Z,10.57
2022-10-03T17:32:15.687Z,11.73
2022-10-03T17:35:18.911Z,10.90
2022-10-03T17:38:56.142Z,15.17
2022-10-03T17:42:04.029Z,11.13
2022-10-03T17:45:09.799Z,11.90
2022-10-03T17:48:07.112Z,11.30
2022-10-03T17:51:13.093Z,12.50
2022-10-03T17:54:07.902Z,11.40
2022-10-03T17:56:55.893Z,11.83
2022-10-03T17:59:48.039Z,11.40
2022-10-03T18:02:24.402Z,13.87
2022-10-03T18:05:25.378Z,12.47
2022-10-03T18:08:14.581Z,12.57
2022-10-03T18:11:08.619Z,12.03
2022-10-03T18:14:05.843Z,13.80
2022-10-03T18:16:59.423Z,13.50
2022-10-03T18:19:55.443Z,13.37
2022-10-03T18:22:52.363Z,11.60
2022-10-03T18:25:57.968Z,11.27
2022-10-03T18:28:55.623Z,11.73
2022-10-03T18:31:45.410Z,13.70
2022-10-03T18:35:07.678Z,12.90
2022-10-03T18:38:00.483Z,12.63
2022-10-03T18:40:56.511Z,13.20
2022-10-03T18:43:53.749Z,12.83
2022-10-03T18:46:47.572Z,12.77
2022-10-03T18:50:04.189Z,13.03
2022-10-03T18:53:04.215Z,14.20
2022-10-03T18:56:02.564Z,11.73
2022-10-03T18:59:35.336Z,12.77
2022-10-03T19:02:23.151Z,13.30
2022-10-03T19:05:15.733Z,12.87
2022-10-03T19:08:21.552Z,15.07
2022-10-03T19:11:12.612Z,16.90
2022-10-03T19:14:11.531Z,11.67
2022-10-03T19:17:26.334Z,14.10
2022-10-03T19:20:17.750Z,13.83
2022-10-03T19:23:01.304Z,13.60
2022-10-03T19:25:29.819Z,13.20
2022-10-03T19:28:42.701Z,15.13
2022-10-03T19:31:35.206Z,13.47
2022-10-03T19:34:26.064Z,14.13
2022-10-03T19:37:16.224Z,12.87
2022-10-03T19:40:04.183Z,13.40
2022-10-03T19:43:02.808Z,14.33
2022-10-03T19:45:50.672Z,14.47
2022-10-03T19:48:40.735Z,14.20
2022-10-03T19:51:47.445Z,14.23
2022-10-03T19:54:53.682Z,13.90
2022-10-03T19:58:02.372Z,13.63
2022-10-03T20:01:00.026Z,15.23
2022-10-03T20:04:00.336Z,13.23
2022-10-03T20:07:09.456Z,12.67
2022-10-03T20:09:58.912Z,15.33
2022-10-03T20:12:50.315Z,14.60
2022-10-03T20:15:43.460Z,13.87
2022-10-03T20:18:40.952Z,15.67
2022-10-03T20:21:32.569Z,11.57
2022-10-03T20:24:21.648Z,13.73
2022-10-03T20:27:25.046Z,14.07
2022-10-03T20:30:21.408Z,13.30
2022-10-03T20:33:10.216Z,11.37
2022-10-03T20:36:05.857Z,13.90
2022-10-03T20:39:14.604Z,14.20
2022-10-03T20:42:01.556Z,11.77
2022-10-03T20:45:12.503Z,12.43
2022-10-03T20:48:31.868Z,11.93
2022-10-03T20:51:19.105Z,13.53
2022-10-03T20:54:06.220Z,12.83
2022-10-03T20:57:04.867Z,12.13
2022-10-03T21:00:24.734Z,12.23
2022-10-03T21:03:31.465Z,13.87
2022-10-03T21:06:20.713Z,12.83
2022-10-03T21:09:07.939Z,11.83
2022-10-03T21:11:59.511Z,13.43
2022-10-03T21:14:49.889Z,12.23
2022-10-03T21:17:39.667Z,10.63
2022-10-03T21:20:33.605Z,13.83
2022-10-03T21:23:24.942Z,11.73
2022-10-03T21:26:14.931Z,12.80
2022-10-03T21:29:01.996Z,14.40
2022-10-03T21:32:05.615Z,13.90
2022-10-03T21:35:06.047Z,11.13
2022-10-03T21:38:20.095Z,12.80
2022-10-03T21:41:47.091Z,10.83
2022-10-03T21:44:34.055Z,11.03
2022-10-03T21:47:41.214Z,12.37
2022-10-03T21:50:37.574Z,10.63
2022-10-03T21:54:00.009Z,12.07
2022-10-03T21:56:58.849Z,10.67
2022-10-03T21:59:53.894Z,17.27
2022-10-03T22:03:21.899Z,10.77
2022-10-03T22:06:18.744Z,9.67
2022-10-03T22:09:08.216Z,11.57
2022-10-03T22:12:04.072Z,11.00
2022-10-03T22:15:18.502Z,9.40
2022-10-03T22:18:16.404Z,9.17
2022-10-03T22:21:38.423Z,9.90
2022-10-03T22:24:41.345Z,8.43
2022-10-03T22:27:44.177Z,8.97
2022-10-03T22:30:35.676Z,9.20
2022-10-03T22:34:19.977Z,8.97
2022-10-03T22:37:06.969Z,8.97
2022-10-03T22:39:55.448Z,9.00
2022-10-03T22:42:42.669Z,7.97
2022-10-03T22:45:32.910Z,7.60
2022-10-03T22:48:04.329Z,9.87
2022-10-03T22:50:35.091Z,9.30
2022-10-03T22:53:03.823Z,9.73
2022-10-03T22:55:32.007Z,8.07
2022-10-03T22:58:02.191Z,7.60
2022-10-03T23:00:36.047Z,9.73
2022-10-03T23:03:10.905Z,8.47
2022-10-03T23:06:05.283Z,8.87
2022-10-03T23:09:09.937Z,8.03
2022-10-03T23:11:40.941Z,9.73
2022-10-03T23:14:45.083Z,8.50
2022-10-03T23:17:33.520Z,10.10
2022-10-03T23:20:15.524Z,9.17
2022-10-03T23:22:48.160Z,8.27
2022-10-03T23:25:24.563Z,9.47
2022-10-03T23:28:13.244Z,9.47
2022-10-03T23:30:47.948Z,7.47
2022-10-03T23:33:17.806Z,8.17
2022-10-03T23:35:46.684Z,8.33
2022-10-03T23:38:32.176Z,8.20
2022-10-03T23:41:10.455Z,8.63
2022-10-03T23:43:49.275Z,8.10
2022-10-03T23:46:22.802Z,7.60
2022-10-03T23:48:54.071Z,7.10
2022-10-03T23:51:33.779Z,7.10
2022-10-03T23:54:04.777Z,7.33
2022-10-03T23:56:37.664Z,5.80
2022-10-03T23:59:05.163Z,6.97
